createdAt,value
2017-04-21T00:00:31.935Z,22.06
2017-04-21T00:01:29.813Z,23.16
2017-04-21T00:02:27.704Z,22.66
2017-04-21T00:03:25.547Z,22.97
2017-04-21T00:04:23.402Z,23.47
2017-04-21T00:05:21.273Z,22.99
2017-04-21T00:06:19.175Z,20.67
2017-04-21T00:07:17.080Z,22.41
2017-04-21T00:08:15.064Z,23.06
2017-04-21T00:09:12.952Z,24.41
2017-04-21T00:10:10.809Z,23.21
2017-04-21T00:11:08.708Z,23.54
2017-04-21T00:12:06.554Z,23.83
2017-04-21T00:13:04.564Z,24.07
2017-04-21T00:14:02.410Z,23.71
2017-04-21T00:15:00.331Z,22.44
2017-04-21T00:15:58.237Z,23.57
2017-04-21T00:16:56.110Z,24.39
2017-04-21T00:17:53.969Z,22.01
2017-04-21T00:18:51.899Z,22.77
2017-04-21T00:19:49.747Z,24.04
2017-04-21T00:20:47.635Z,24.06
2017-04-21T00:21:45.615Z,24.31
2017-04-21T00:22:43.454Z,24.37
2017-04-21T00:23:41.499Z,23.03
2017-04-21T00:24:39.402Z,23.11
2017-04-21T00:25:37.369Z,23.77
2017-04-21T00:26:35.233Z,24.33
2017-04-21T00:27:33.270Z,24.11
2017-04-21T00:28:31.128Z,24.22
2017-04-21T00:29:28.935Z,23.39
2017-04-21T00:30:26.739Z,23.07
2017-04-21T00:31:24.605Z,23.76
2017-04-21T00:32:22.492Z,23.94
2017-04-21T00:33:20.329Z,23.83
2017-04-21T00:34:18.380Z,23.96
2017-04-21T00:35:16.247Z,23.10
2017-04-21T00:36:14.096Z,23.04
2017-04-21T00:37:11.973Z,22.79
2017-04-21T00:38:09.851Z,23.39
2017-04-21T00:39:07.740Z,23.51
2017-04-21T00:40:05.657Z,23.57
2017-04-21T00:41:03.540Z,23.74
2017-04-21T00:42:01.414Z,24.20
2017-04-21T00:42:59.269Z,26.31
2017-04-21T00:43:57.156Z,23.81
2017-04-21T00:44:55.038Z,22.53
2017-04-21T00:45:52.888Z,23.00
2017-04-21T00:46:50.787Z,22.50
2017-04-21T00:47:48.645Z,23.63
2017-04-21T00:48:46.508Z,24.63
2017-04-21T00:49:44.350Z,25.47
2017-04-21T00:50:42.192Z,23.71
2017-04-21T00:51:40.044Z,23.60
2017-04-21T00:52:37.959Z,24.52
2017-04-21T00:53:35.857Z,23.19
2017-04-21T00:54:33.800Z,23.34
2017-04-21T00:55:31.616Z,24.46
2017-04-21T00:56:29.536Z,23.95
2017-04-21T00:57:27.420Z,24.52
2017-04-21T00:58:25.268Z,25.31
2017-04-21T00:59:23.232Z,23.63
2017-04-21T01:00:21.146Z,23.85
2017-04-21T01:01:19.055Z,25.23
2017-04-21T01:02:17.036Z,23.30
2017-04-21T01:03:14.929Z,23.07
2017-04-21T01:04:12.728Z,24.00
2017-04-21T01:05:10.708Z,22.87
2017-04-21T01:06:08.558Z,22.80
2017-04-21T01:07:06.419Z,24.60
2017-04-21T01:08:04.280Z,25.23
2017-04-21T01:09:02.184Z,23.88
2017-04-21T01:10:00.113Z,25.52
2017-04-21T01:10:58.024Z,24.76
2017-04-21T01:11:55.884Z,24.25
2017-04-21T01:12:53.776Z,23.95
2017-04-21T01:13:51.680Z,21.77
2017-04-21T01:14:49.493Z,23.47
2017-04-21T01:15:47.351Z,24.96
2017-04-21T01:16:45.233Z,22.82
2017-04-21T01:17:43.091Z,25.83
2017-04-21T01:18:41.019Z,24.60
2017-04-21T01:19:38.900Z,23.87
2017-04-21T01:20:36.715Z,23.42
2017-04-21T01:21:34.684Z,24.62
2017-04-21T01:22:32.528Z,24.72
2017-04-21T01:23:30.412Z,24.80
2017-04-21T01:24:28.272Z,23.87
2017-04-21T01:25:26.101Z,24.62
2017-04-21T01:26:24.048Z,24.25
2017-04-21T01:27:21.933Z,24.27
2017-04-21T01:28:19.837Z,23.67
2017-04-21T01:29:17.688Z,23.68
2017-04-21T01:30:15.625Z,24.03
2017-04-21T01:31:13.627Z,23.83
2017-04-21T01:32:11.482Z,24.60
2017-04-21T01:33:09.338Z,24.25
2017-04-21T01:34:07.167Z,24.30
2017-04-21T01:35:05.048Z,25.27
2017-04-21T01:36:02.935Z,24.12
2017-04-21T01:37:00.867Z,25.12
2017-04-21T01:37:58.724Z,23.40
2017-04-21T01:38:56.863Z,22.73
2017-04-21T01:39:54.809Z,24.17
2017-04-21T01:40:52.689Z,24.28
2017-04-21T01:41:50.524Z,24.58
2017-04-21T01:42:48.396Z,24.58
2017-04-21T01:43:46.233Z,23.82
2017-04-21T01:44:44.092Z,24.90
2017-04-21T01:45:41.960Z,23.42
2017-04-21T01:46:39.892Z,25.00
2017-04-21T01:47:37.741Z,23.12
2017-04-21T01:48:35.623Z,24.80
2017-04-21T01:49:33.513Z,24.17
2017-04-21T01:50:31.348Z,24.28
2017-04-21T01:51:29.156Z,23.71
2017-04-21T01:52:27.059Z,25.16
2017-04-21T01:53:24.920Z,22.86
2017-04-21T01:54:22.735Z,24.02
2017-04-21T01:55:20.600Z,24.18
2017-04-21T01:56:18.464Z,23.20
2017-04-21T01:57:16.396Z,25.38
2017-04-21T01:58:15.676Z,23.83
2017-04-21T01:59:13.526Z,23.92
2017-04-21T02:00:11.546Z,24.93
2017-04-21T02:11:58.387Z,26.07
2017-04-21T02:12:56.233Z,24.78
2017-04-21T02:13:54.144Z,25.87
2017-04-21T02:14:51.988Z,24.76
2017-04-21T02:15:49.788Z,24.20
2017-04-21T02:16:47.659Z,22.73
2017-04-21T02:17:45.535Z,23.89
2017-04-21T02:18:43.415Z,24.40
2017-04-21T02:19:41.243Z,22.70
2017-04-21T02:20:39.124Z,24.63
2017-04-21T02:21:36.999Z,24.77
2017-04-21T02:22:34.855Z,25.50
2017-04-21T02:23:32.804Z,24.17
2017-04-21T02:24:30.992Z,23.54
2017-04-21T02:25:28.814Z,24.18
2017-04-21T02:26:26.682Z,25.97
2017-04-21T02:27:24.505Z,25.50
2017-04-21T02:28:22.328Z,24.19
2017-04-21T02:29:20.155Z,25.13
2017-04-21T02:30:17.991Z,25.89
2017-04-21T02:31:15.826Z,26.51
2017-04-21T02:32:13.624Z,23.61
2017-04-21T02:33:11.572Z,24.12
2017-04-21T02:34:09.407Z,24.68
2017-04-21T02:35:07.347Z,23.73
2017-04-21T02:36:05.152Z,25.75
2017-04-21T02:37:03.097Z,26.38
2017-04-21T02:38:00.993Z,23.42
2017-04-21T02:38:58.793Z,23.72
2017-04-21T02:39:56.732Z,25.43
2017-04-21T02:40:54.566Z,24.30
2017-04-21T02:41:52.527Z,25.50
2017-04-21T02:42:50.462Z,26.02
2017-04-21T02:43:48.282Z,25.68
2017-04-21T02:44:46.148Z,24.40
2017-04-21T02:45:44.063Z,23.90
2017-04-21T02:46:41.963Z,24.15
2017-04-21T02:47:39.786Z,24.43
2017-04-21T02:48:37.654Z,23.70
2017-04-21T02:49:35.444Z,25.02
2017-04-21T02:50:33.507Z,26.17
2017-04-21T02:51:31.370Z,23.83
2017-04-21T02:52:29.288Z,25.67
2017-04-21T02:53:27.140Z,23.80
2017-04-21T02:54:25.031Z,24.58
2017-04-21T02:55:22.848Z,25.85
2017-04-21T02:56:20.723Z,26.37
2017-04-21T02:57:18.650Z,25.23
2017-04-21T02:58:16.527Z,25.20
2017-04-21T02:59:14.579Z,24.18
2017-04-21T03:00:12.475Z,26.45
2017-04-21T03:01:10.271Z,24.45
2017-04-21T03:02:08.126Z,26.04
2017-04-21T03:03:05.951Z,26.27
2017-04-21T03:04:03.924Z,27.13
2017-04-21T03:05:01.776Z,22.33
2017-04-21T03:05:59.595Z,24.68
2017-04-21T03:06:57.432Z,23.03
2017-04-21T03:07:55.284Z,24.99
2017-04-21T03:08:53.087Z,23.08
2017-04-21T03:09:50.855Z,24.33
2017-04-21T03:10:48.839Z,23.66
2017-04-21T03:11:46.692Z,26.09
2017-04-21T03:12:44.548Z,23.84
2017-04-21T03:13:42.459Z,24.38
2017-04-21T03:14:40.370Z,23.50
2017-04-21T03:15:38.184Z,24.36
2017-04-21T03:16:36.092Z,25.11
2017-04-21T03:17:34.035Z,25.21
2017-04-21T03:18:31.864Z,23.26
2017-04-21T03:19:29.741Z,25.59
2017-04-21T03:20:27.667Z,24.73
2017-04-21T03:21:25.544Z,24.03
2017-04-21T03:22:23.416Z,24.00
2017-04-21T03:23:21.252Z,24.49
2017-04-21T03:24:19.193Z,24.90
2017-04-21T03:25:17.061Z,24.59
2017-04-21T03:26:14.898Z,23.97
2017-04-21T03:27:12.793Z,25.20
2017-04-21T03:28:10.639Z,24.51
2017-04-21T03:29:08.539Z,24.22
2017-04-21T03:30:06.406Z,24.84
2017-04-21T03:31:04.368Z,25.12
2017-04-21T03:32:02.208Z,24.07
2017-04-21T03:33:00.030Z,24.80
2017-04-21T03:33:57.908Z,25.08
2017-04-21T03:34:55.724Z,26.18
2017-04-21T03:35:53.714Z,23.39
2017-04-21T03:36:51.541Z,24.34
2017-04-21T03:37:49.469Z,24.83
2017-04-21T03:38:47.369Z,25.47
2017-04-21T03:39:45.283Z,25.00
2017-04-21T03:40:43.122Z,27.20
2017-04-21T03:41:40.948Z,26.09
2017-04-21T03:42:38.859Z,24.63
2017-04-21T03:43:36.663Z,24.70
2017-04-21T03:44:34.671Z,25.80
2017-04-21T03:45:32.602Z,24.73
2017-04-21T03:46:30.468Z,25.43
2017-04-21T03:47:28.283Z,25.20
2017-04-21T03:48:26.121Z,22.46
2017-04-21T03:49:24.055Z,25.03
2017-04-21T03:50:21.882Z,25.50
2017-04-21T03:51:19.851Z,24.83
2017-04-21T03:52:17.732Z,24.41
2017-04-21T03:53:15.563Z,26.39
2017-04-21T03:54:13.492Z,26.66
2017-04-21T03:55:11.350Z,25.56
2017-04-21T03:56:09.237Z,26.21
2017-04-21T03:57:07.076Z,27.23
2017-04-21T03:58:05.046Z,25.21
2017-04-21T03:59:02.900Z,25.21
2017-04-21T04:00:00.727Z,26.86
2017-04-21T04:00:58.668Z,23.99
2017-04-21T04:01:56.523Z,22.80
2017-04-21T04:02:54.453Z,25.86
2017-04-21T04:03:52.256Z,25.53
2017-04-21T04:04:50.235Z,26.64
2017-04-21T04:05:48.066Z,25.89
2017-04-21T04:06:45.906Z,24.50
2017-04-21T04:07:43.786Z,25.06
2017-04-21T04:08:41.651Z,26.66
2017-04-21T04:09:39.579Z,23.79
2017-04-21T04:10:37.410Z,25.78
2017-04-21T04:11:35.488Z,25.39
2017-04-21T04:12:33.336Z,26.46
2017-04-21T04:13:31.167Z,26.46
2017-04-21T04:14:29.003Z,27.19
2017-04-21T04:15:26.847Z,28.23
2017-04-21T04:16:24.718Z,28.26
2017-04-21T04:17:22.629Z,27.79
2017-04-21T04:18:20.576Z,26.90
2017-04-21T04:19:18.376Z,26.36
2017-04-21T04:20:16.228Z,26.43
2017-04-21T04:21:14.133Z,27.27
2017-04-21T04:22:11.975Z,26.53
2017-04-21T04:23:09.999Z,27.17
2017-04-21T04:24:07.864Z,26.80
2017-04-21T04:25:05.845Z,25.23
2017-04-21T04:26:03.643Z,25.53
2017-04-21T04:27:01.477Z,28.33
2017-04-21T04:27:59.305Z,26.09
2017-04-21T04:28:57.115Z,24.64
2017-04-21T04:29:55.108Z,26.01
2017-04-21T04:30:52.931Z,26.24
2017-04-21T04:31:50.840Z,27.13
2017-04-21T04:32:48.729Z,25.97
2017-04-21T04:33:46.557Z,26.41
2017-04-21T04:34:44.859Z,25.97
2017-04-21T04:35:42.679Z,26.76
2017-04-21T04:36:40.529Z,26.67
2017-04-21T04:37:38.382Z,26.39
2017-04-21T04:38:36.220Z,28.40
2017-04-21T04:39:34.070Z,27.77
2017-04-21T04:40:31.898Z,27.40
2017-04-21T04:41:29.722Z,27.20
2017-04-21T04:42:27.549Z,27.29
2017-04-21T04:43:25.438Z,26.21
2017-04-21T04:44:23.276Z,27.63
2017-04-21T04:45:21.331Z,25.69
2017-04-21T04:46:19.160Z,27.20
2017-04-21T04:47:17.020Z,28.31
2017-04-21T04:48:14.901Z,27.39
2017-04-21T04:49:12.706Z,28.46
2017-04-21T04:50:10.705Z,28.11
2017-04-21T04:51:08.537Z,28.69
2017-04-21T04:52:06.484Z,27.77
2017-04-21T04:53:04.351Z,28.30
2017-04-21T04:54:02.262Z,29.07
2017-04-21T04:55:00.120Z,27.86
2017-04-21T04:55:58.013Z,29.53
2017-04-21T04:56:55.895Z,26.61
2017-04-21T04:57:53.692Z,28.94
2017-04-21T04:58:51.499Z,27.23
2017-04-21T04:59:49.334Z,26.21
2017-04-21T05:00:47.380Z,27.50
2017-04-21T05:01:45.233Z,28.70
2017-04-21T05:02:43.054Z,27.44
2017-04-21T05:03:40.989Z,29.00
2017-04-21T05:04:38.812Z,29.87
2017-04-21T05:05:36.734Z,27.76
2017-04-21T05:06:34.533Z,27.51
2017-04-21T05:07:32.564Z,29.67
2017-04-21T05:08:30.371Z,26.23
2017-04-21T05:09:28.191Z,27.91
2017-04-21T05:10:26.127Z,30.43
2017-04-21T05:11:24.005Z,29.16
2017-04-21T05:12:21.887Z,28.83
2017-04-21T05:13:19.682Z,29.21
2017-04-21T05:14:17.666Z,28.97
2017-04-21T05:15:15.588Z,28.86
2017-04-21T05:16:15.007Z,28.99
2017-04-21T05:17:12.819Z,29.80
2017-04-21T05:18:10.816Z,29.00
2017-04-21T05:19:08.631Z,29.20
2017-04-21T05:20:06.483Z,28.54
2017-04-21T05:21:04.281Z,28.23
2017-04-21T05:22:02.148Z,28.87
2017-04-21T05:22:59.973Z,29.74
2017-04-21T05:23:57.924Z,29.19
2017-04-21T05:24:55.749Z,30.03
2017-04-21T05:25:53.579Z,29.50
2017-04-21T05:26:51.482Z,32.51
2017-04-21T05:27:49.336Z,30.71
2017-04-21T05:28:47.297Z,31.43
2017-04-21T05:29:45.106Z,30.79
2017-04-21T05:30:50.827Z,30.26
2017-04-21T05:31:48.699Z,28.56
2017-04-21T05:32:46.579Z,31.39
2017-04-21T05:33:44.464Z,29.63
2017-04-21T05:34:42.361Z,28.93
2017-04-21T05:35:40.184Z,27.16
2017-04-21T05:36:38.139Z,32.50
2017-04-21T05:37:37.809Z,29.09
2017-04-21T05:38:35.712Z,30.47
2017-04-21T05:39:33.551Z,30.03
2017-04-21T05:40:31.379Z,29.84
2017-04-21T05:41:29.300Z,30.81
2017-04-21T05:42:27.165Z,31.24
2017-04-21T05:43:24.989Z,29.71
2017-04-21T05:44:22.772Z,30.97
2017-04-21T05:45:20.596Z,32.39
2017-04-21T05:46:18.388Z,31.01
2017-04-21T05:47:16.296Z,31.07
2017-04-21T05:48:14.137Z,31.60
2017-04-21T05:49:12.006Z,30.29
2017-04-21T05:50:09.859Z,30.76
2017-04-21T05:51:07.790Z,31.21
2017-04-21T05:52:05.627Z,35.34
2017-04-21T05:53:03.611Z,32.97
2017-04-21T05:54:01.432Z,34.21
2017-04-21T05:54:59.237Z,30.87
2017-04-21T05:55:57.178Z,32.33
2017-04-21T05:56:55.035Z,32.66
2017-04-21T05:57:53.005Z,31.23
2017-04-21T05:58:50.832Z,33.53
2017-04-21T05:59:48.783Z,30.83
2017-04-21T06:00:46.632Z,32.30
2017-04-21T06:01:44.480Z,31.90
2017-04-21T06:02:42.383Z,30.80
2017-04-21T06:03:40.273Z,31.87
2017-04-21T06:04:38.160Z,31.11
2017-04-21T06:05:36.057Z,32.14
2017-04-21T06:06:33.903Z,33.06
2017-04-21T06:07:31.747Z,30.93
2017-04-21T06:08:29.576Z,31.59
2017-04-21T06:09:27.503Z,32.57
2017-04-21T06:10:25.372Z,31.24
2017-04-21T06:11:23.277Z,30.01
2017-04-21T06:12:21.219Z,33.36
2017-04-21T06:13:19.173Z,31.64
2017-04-21T06:14:17.005Z,30.71
2017-04-21T06:15:14.874Z,31.71
2017-04-21T06:16:12.723Z,31.64
2017-04-21T06:17:10.557Z,33.73
2017-04-21T06:18:08.462Z,32.89
2017-04-21T06:19:06.342Z,30.76
2017-04-21T06:20:04.335Z,33.34
2017-04-21T06:21:02.192Z,31.81
2017-04-21T06:22:00.040Z,31.97
2017-04-21T06:22:58.010Z,31.63
2017-04-21T06:23:55.845Z,32.03
2017-04-21T06:24:53.701Z,32.81
2017-04-21T06:25:51.551Z,32.29
2017-04-21T06:26:49.508Z,31.76
2017-04-21T06:27:47.376Z,31.66
2017-04-21T06:28:45.228Z,31.43
2017-04-21T06:29:43.117Z,30.64
2017-04-21T06:30:40.957Z,33.33
2017-04-21T06:31:38.846Z,29.23
2017-04-21T06:32:36.692Z,30.47
2017-04-21T06:33:34.631Z,29.64
2017-04-21T06:34:32.520Z,29.77
2017-04-21T06:35:30.393Z,28.51
2017-04-21T06:36:28.303Z,30.53
2017-04-21T06:37:26.230Z,29.84
2017-04-21T06:38:24.094Z,30.23
2017-04-21T06:39:22.006Z,30.20
2017-04-21T06:40:20.174Z,30.29
2017-04-21T06:41:19.513Z,28.64
2017-04-21T06:42:17.556Z,29.11
2017-04-21T06:43:23.812Z,30.34
2017-04-21T06:44:28.286Z,29.71
2017-04-21T06:45:26.931Z,27.89
2017-04-21T06:46:30.435Z,28.87
2017-04-21T06:47:29.648Z,28.76
2017-04-21T06:48:28.783Z,29.26
2017-04-21T06:49:27.576Z,30.10
2017-04-21T06:50:40.918Z,30.96
2017-04-21T06:51:39.199Z,27.51
2017-04-21T06:52:38.401Z,27.50
2017-04-21T06:53:36.961Z,28.57
2017-04-21T06:54:36.195Z,29.54
2017-04-21T06:55:39.426Z,29.04
2017-04-21T06:56:43.348Z,28.47
2017-04-21T06:57:41.488Z,28.34
2017-04-21T06:58:40.439Z,27.63
2017-04-21T06:59:38.537Z,30.06
2017-04-21T07:00:42.660Z,27.76
2017-04-21T07:01:41.408Z,31.21
2017-04-21T07:02:57.403Z,29.83
2017-04-21T07:03:56.063Z,29.90
2017-04-21T07:04:55.680Z,28.04
2017-04-21T07:06:01.373Z,26.53
2017-04-21T07:07:08.704Z,29.04
2017-04-21T07:08:13.304Z,29.69
2017-04-21T07:09:13.952Z,29.64
2017-04-21T07:10:12.046Z,29.34
2017-04-21T07:11:11.347Z,29.57
2017-04-21T07:12:09.471Z,27.73
2017-04-21T07:13:19.847Z,31.40
2017-04-21T07:14:19.823Z,29.51
2017-04-21T07:15:19.700Z,29.27
2017-04-21T07:16:19.631Z,29.80
2017-04-21T07:17:18.896Z,27.61
2017-04-21T07:18:22.334Z,30.34
2017-04-21T07:19:20.446Z,31.14
2017-04-21T07:20:19.218Z,29.41
2017-04-21T07:21:22.679Z,30.13
2017-04-21T07:22:21.253Z,29.10
2017-04-21T07:23:34.022Z,29.43
2017-04-21T07:24:32.412Z,28.76
2017-04-21T07:25:32.401Z,29.40
2017-04-21T07:26:40.884Z,30.20
2017-04-21T07:27:39.636Z,29.97
2017-04-21T07:28:38.579Z,28.74
2017-04-21T07:29:41.676Z,28.63
2017-04-21T07:30:41.196Z,28.43
2017-04-21T07:31:40.944Z,27.01
2017-04-21T07:32:39.003Z,28.23
2017-04-21T07:33:38.387Z,28.16
2017-04-21T07:34:37.479Z,28.01
2017-04-21T07:36:40.061Z,27.47
2017-04-21T07:37:40.679Z,27.69
2017-04-21T07:38:40.414Z,28.53
2017-04-21T07:39:40.426Z,29.20
2017-04-21T07:40:43.776Z,27.49
2017-04-21T07:41:58.034Z,27.87
2017-04-21T07:42:59.290Z,27.76
2017-04-21T07:43:57.879Z,29.23
2017-04-21T07:44:57.236Z,28.30
2017-04-21T07:46:00.852Z,27.90
2017-04-21T07:46:59.535Z,27.81
2017-04-21T07:47:58.788Z,28.43
2017-04-21T07:48:58.293Z,28.64
2017-04-21T07:49:57.604Z,27.04
2017-04-21T07:50:57.383Z,27.80
2017-04-21T07:52:01.037Z,27.37
2017-04-21T07:53:05.295Z,27.69
2017-04-21T07:54:06.886Z,28.29
2017-04-21T07:55:05.664Z,27.93
2017-04-21T07:56:05.238Z,27.66
2017-04-21T07:57:04.200Z,26.81
2017-04-21T07:58:03.640Z,27.17
2017-04-21T07:59:02.511Z,28.00
2017-04-21T08:01:20.196Z,28.33
2017-04-21T08:01:31.431Z,29.83
2017-04-21T08:01:58.129Z,29.00
2017-04-21T08:02:57.057Z,28.04
2017-04-21T08:03:55.846Z,30.19
2017-04-21T08:04:54.389Z,27.71
2017-04-21T08:05:52.527Z,28.09
2017-04-21T08:06:56.441Z,27.74
2017-04-21T08:07:55.316Z,30.00
2017-04-21T08:08:54.071Z,30.11
2017-04-21T08:09:53.471Z,28.83
2017-04-21T08:10:52.728Z,27.14
2017-04-21T08:11:53.227Z,28.00
2017-04-21T08:12:52.591Z,27.84
2017-04-21T08:13:51.135Z,30.84
2017-04-21T08:14:55.675Z,28.33
2017-04-21T08:15:59.456Z,28.80
2017-04-21T08:17:04.351Z,28.64
2017-04-21T08:18:02.634Z,28.73
2017-04-21T08:19:07.463Z,28.74
2017-04-21T08:20:12.238Z,28.67
2017-04-21T08:21:14.619Z,27.61
2017-04-21T08:22:13.235Z,28.17
2017-04-21T08:23:17.524Z,28.86
2017-04-21T08:24:17.535Z,31.09
2017-04-21T08:25:23.441Z,28.23
2017-04-21T08:26:27.240Z,27.94
2017-04-21T08:27:31.003Z,29.93
2017-04-21T08:28:29.854Z,28.11
2017-04-21T08:29:28.888Z,28.16
2017-04-21T08:30:32.459Z,32.67
2017-04-21T08:31:42.548Z,28.66
2017-04-21T08:32:41.028Z,29.31
2017-04-21T08:33:39.308Z,27.87
2017-04-21T08:34:37.392Z,29.74
2017-04-21T08:35:36.062Z,29.46
2017-04-21T08:36:39.476Z,28.00
2017-04-21T08:37:39.040Z,28.09
2017-04-21T08:38:42.488Z,27.74
2017-04-21T08:39:47.020Z,27.43
2017-04-21T08:40:45.118Z,30.96
2017-04-21T08:41:44.604Z,29.46
2017-04-21T08:42:43.944Z,29.21
2017-04-21T08:43:43.619Z,28.50
2017-04-21T08:44:43.324Z,29.99
2017-04-21T08:45:47.403Z,28.40
2017-04-21T08:46:51.587Z,26.41
2017-04-21T08:47:50.325Z,27.86
2017-04-21T08:48:48.495Z,27.17
2017-04-21T08:49:46.704Z,28.44
2017-04-21T08:50:50.969Z,28.70
2017-04-21T08:51:49.901Z,28.33
2017-04-21T08:52:48.441Z,28.56
2017-04-21T08:53:52.868Z,26.73
2017-04-21T08:54:57.025Z,28.24
2017-04-21T08:55:55.775Z,29.54
2017-04-21T08:56:55.308Z,28.56
2017-04-21T08:57:54.021Z,29.09
2017-04-21T08:58:53.642Z,27.97
2017-04-21T08:59:53.016Z,27.67
2017-04-21T09:00:57.032Z,27.80
2017-04-21T09:02:01.963Z,27.59
2017-04-21T09:03:00.527Z,26.21
2017-04-21T09:03:59.480Z,30.37
2017-04-21T09:05:00.014Z,28.79
2017-04-21T09:05:59.288Z,25.96
2017-04-21T09:07:03.691Z,27.77
2017-04-21T09:08:01.815Z,27.54
2017-04-21T09:09:06.466Z,27.57
2017-04-21T09:10:05.198Z,27.29
2017-04-21T09:11:05.303Z,28.47
2017-04-21T09:12:10.619Z,25.83
2017-04-21T09:13:09.607Z,27.33
2017-04-21T09:14:08.699Z,27.26
2017-04-21T09:15:12.392Z,26.50
2017-04-21T09:16:12.114Z,26.36
2017-04-21T09:17:11.680Z,26.71
2017-04-21T09:18:10.152Z,27.13
2017-04-21T09:19:08.835Z,27.13
2017-04-21T09:20:07.177Z,26.97
2017-04-21T09:21:05.269Z,25.94
2017-04-21T09:22:04.013Z,28.54
2017-04-21T09:23:02.633Z,28.16
2017-04-21T09:24:01.274Z,27.33
2017-04-21T09:25:00.652Z,27.00
2017-04-21T09:26:00.220Z,28.34
2017-04-21T09:26:59.681Z,27.57
2017-04-21T09:27:58.829Z,29.77
2017-04-21T09:28:57.788Z,28.21
2017-04-21T09:29:56.718Z,26.24
2017-04-21T09:31:02.817Z,27.39
2017-04-21T09:31:54.620Z,27.01
2017-04-21T09:32:52.896Z,29.73
2017-04-21T09:33:52.445Z,25.83
2017-04-21T09:35:34.397Z,27.86
2017-04-21T09:35:50.293Z,27.47
2017-04-21T09:36:49.673Z,27.70
2017-04-21T09:37:48.526Z,27.64
2017-04-21T09:38:47.293Z,26.89
2017-04-21T09:39:45.517Z,29.51
2017-04-21T09:40:50.786Z,26.57
2017-04-21T09:41:49.526Z,27.20
2017-04-21T09:42:54.160Z,27.34
2017-04-21T09:43:52.890Z,27.74
2017-04-21T09:44:52.152Z,27.07
2017-04-21T09:45:51.769Z,27.46
2017-04-21T09:46:51.044Z,27.63
2017-04-21T09:47:50.087Z,28.70
2017-04-21T09:48:48.437Z,27.76
2017-04-21T09:49:47.083Z,28.14
2017-04-21T09:50:45.132Z,28.64
2017-04-21T09:53:46.274Z,27.24
2017-04-21T09:56:04.955Z,28.86
2017-04-21T09:56:05.052Z,28.37
2017-04-21T09:57:02.409Z,28.37
2017-04-21T09:58:30.465Z,27.34
2017-04-21T09:59:53.505Z,26.84
2017-04-21T10:01:22.007Z,27.91
2017-04-21T10:02:28.037Z,28.24
2017-04-21T10:03:07.834Z,28.40
2017-04-21T10:03:46.858Z,27.29
2017-04-21T10:04:49.197Z,27.34
2017-04-21T10:04:53.981Z,27.37
2017-04-21T10:06:33.789Z,26.20
2017-04-21T10:07:29.917Z,26.50
2017-04-21T10:07:39.271Z,27.17
2017-04-21T10:07:42.293Z,26.17
2017-04-21T10:08:22.015Z,26.33
2017-04-21T10:08:28.863Z,27.36
2017-04-21T10:09:33.857Z,29.27
2017-04-21T10:10:38.116Z,27.80
2017-04-21T10:11:37.162Z,25.79
2017-04-21T10:12:35.726Z,26.60
2017-04-21T10:13:33.970Z,29.49
2017-04-21T10:14:32.431Z,26.31
2017-04-21T10:15:36.144Z,28.64
2017-04-21T10:16:40.644Z,27.09
2017-04-21T10:17:42.820Z,28.31
2017-04-21T10:18:40.902Z,27.16
2017-04-21T10:19:40.412Z,29.16
2017-04-21T10:20:45.742Z,28.07
2017-04-21T10:21:49.649Z,29.61
2017-04-21T10:22:48.292Z,30.73
2017-04-21T10:23:48.005Z,28.26
2017-04-21T10:24:47.350Z,29.27
2017-04-21T10:25:46.292Z,29.00
2017-04-21T10:26:46.005Z,29.26
2017-04-21T10:27:44.593Z,29.86
2017-04-21T10:28:43.737Z,29.31
2017-04-21T10:29:43.081Z,30.99
2017-04-21T10:30:41.962Z,31.04
2017-04-21T10:31:40.647Z,29.77
2017-04-21T10:32:39.664Z,28.84
2017-04-21T10:33:39.056Z,31.00
2017-04-21T10:34:38.891Z,29.86
2017-04-21T10:35:38.843Z,30.83
2017-04-21T10:36:37.563Z,30.03
2017-04-21T10:37:36.632Z,31.63
2017-04-21T10:38:36.626Z,31.50
2017-04-21T10:39:35.267Z,30.10
2017-04-21T10:40:34.254Z,30.77
2017-04-21T10:41:39.409Z,31.36
2017-04-21T10:42:37.680Z,30.87
2017-04-21T10:43:37.980Z,32.33
2017-04-21T10:44:41.224Z,31.91
2017-04-21T10:45:45.179Z,30.64
2017-04-21T10:46:44.224Z,32.93
2017-04-21T10:47:44.297Z,31.16
2017-04-21T10:48:43.500Z,31.44
2017-04-21T10:49:47.881Z,32.77
2017-04-21T10:50:51.324Z,31.40
2017-04-21T10:51:50.652Z,33.39
2017-04-21T10:52:55.672Z,32.30
2017-04-21T10:53:55.189Z,32.04
2017-04-21T10:54:53.367Z,32.79
2017-04-21T10:55:51.752Z,30.84
2017-04-21T10:56:50.106Z,35.24
2017-04-21T10:57:48.713Z,33.93
2017-04-21T10:58:47.080Z,33.26
2017-04-21T10:59:45.220Z,33.29
2017-04-21T11:00:43.619Z,31.63
2017-04-21T11:01:47.637Z,32.13
2017-04-21T11:02:47.629Z,31.46
2017-04-21T11:03:51.393Z,32.24
2017-04-21T11:04:49.979Z,33.26
2017-04-21T11:05:49.109Z,32.79
2017-04-21T11:06:47.844Z,32.91
2017-04-21T11:07:51.289Z,33.54
2017-04-21T11:08:49.593Z,33.19
2017-04-21T11:09:48.580Z,33.20
2017-04-21T11:10:56.464Z,32.54
2017-04-21T11:11:55.867Z,33.21
2017-04-21T11:12:55.052Z,31.54
2017-04-21T11:13:53.421Z,32.86
2017-04-21T11:14:52.016Z,32.69
2017-04-21T11:15:52.103Z,31.66
2017-04-21T11:16:51.300Z,32.46
2017-04-21T11:17:51.546Z,31.07
2017-04-21T11:18:50.956Z,34.47
2017-04-21T11:19:49.515Z,33.86
2017-04-21T11:20:48.469Z,30.24
2017-04-21T11:21:52.337Z,31.94
2017-04-21T11:22:54.392Z,33.66
2017-04-21T11:23:59.845Z,32.40
2017-04-21T11:25:00.209Z,31.76
2017-04-21T11:25:58.883Z,31.69
2017-04-21T11:26:58.335Z,32.16
2017-04-21T11:27:57.966Z,32.51
2017-04-21T11:28:55.960Z,33.29
2017-04-21T11:29:54.589Z,33.30
2017-04-21T11:30:53.880Z,32.16
2017-04-21T11:31:52.118Z,32.71
2017-04-21T11:32:54.628Z,31.80
2017-04-21T11:33:54.192Z,31.73
2017-04-21T11:34:52.840Z,33.56
2017-04-21T11:35:57.002Z,34.13
2017-04-21T11:36:55.180Z,31.91
2017-04-21T11:37:53.545Z,32.76
2017-04-21T11:38:52.336Z,32.37
2017-04-21T11:39:51.196Z,33.61
2017-04-21T11:40:49.168Z,32.69
2017-04-21T11:41:47.584Z,33.26
2017-04-21T11:42:51.760Z,33.67
2017-04-21T11:43:56.561Z,32.79
2017-04-21T11:44:55.418Z,32.96
2017-04-21T11:45:59.187Z,31.40
2017-04-21T11:47:03.163Z,33.90
2017-04-21T11:48:01.356Z,32.89
2017-04-21T11:49:03.917Z,31.96
2017-04-21T11:50:02.234Z,30.21
2017-04-21T11:51:00.461Z,34.26
2017-04-21T11:52:05.739Z,33.73
2017-04-21T11:53:06.639Z,31.87
2017-04-21T11:54:06.812Z,32.10
2017-04-21T11:55:07.476Z,31.83
2017-04-21T11:56:07.382Z,31.99
2017-04-21T11:57:05.482Z,30.84
2017-04-21T11:58:06.632Z,30.33
2017-04-21T11:59:05.148Z,31.91
2017-04-21T12:00:04.283Z,32.17
2017-04-21T12:01:03.036Z,34.13
2017-04-21T12:02:01.690Z,31.21
2017-04-21T12:03:01.242Z,32.33
2017-04-21T12:04:01.723Z,31.73
2017-04-21T12:05:05.597Z,30.14
2017-04-21T12:06:09.776Z,32.26
2017-04-21T12:07:08.676Z,30.07
2017-04-21T12:08:09.779Z,32.40
2017-04-21T12:09:13.991Z,32.00
2017-04-21T12:10:12.780Z,30.54
2017-04-21T12:11:13.403Z,32.64
2017-04-21T12:12:13.134Z,33.36
2017-04-21T12:13:12.280Z,29.51
2017-04-21T12:14:12.657Z,32.70
2017-04-21T12:15:11.467Z,29.43
2017-04-21T12:16:11.441Z,32.07
2017-04-21T12:17:10.581Z,31.86
2017-04-21T12:18:15.881Z,30.91
2017-04-21T12:19:14.438Z,31.34
2017-04-21T12:20:18.672Z,31.19
2017-04-21T12:21:18.059Z,29.86
2017-04-21T12:22:17.087Z,29.86
2017-04-21T12:23:20.861Z,32.89
2017-04-21T12:24:25.316Z,30.64
2017-04-21T12:25:23.629Z,30.77
2017-04-21T12:26:22.437Z,30.81
2017-04-21T12:27:26.579Z,29.91
2017-04-21T12:28:26.292Z,34.23
2017-04-21T12:29:25.715Z,30.83
2017-04-21T12:30:29.777Z,30.71
2017-04-21T12:31:29.156Z,32.60
2017-04-21T12:32:33.167Z,31.49
2017-04-21T12:33:32.892Z,31.90
2017-04-21T12:34:32.286Z,34.59
2017-04-21T12:35:30.111Z,29.64
2017-04-21T12:36:28.020Z,32.10
2017-04-21T12:37:26.108Z,31.87
2017-04-21T12:38:23.975Z,31.01
2017-04-21T12:39:21.843Z,31.11
2017-04-21T12:40:19.710Z,30.86
2017-04-21T12:41:17.585Z,30.96
2017-04-21T12:42:15.443Z,32.47
2017-04-21T12:43:13.290Z,30.69
2017-04-21T12:44:11.138Z,32.73
2017-04-21T12:45:09.130Z,31.73
2017-04-21T12:46:06.999Z,31.36
2017-04-21T12:47:04.957Z,29.79
2017-04-21T12:48:02.822Z,31.43
2017-04-21T12:49:01.871Z,32.73
2017-04-21T12:49:59.764Z,28.99
2017-04-21T12:50:57.633Z,33.80
2017-04-21T12:51:55.518Z,31.41
2017-04-21T12:52:53.396Z,34.51